Time;durP1;ratioP1;P1;durP2;ratioP2;P2;SDS_P1;SDS_P2;PMS_P1;PMS_P2;Temp;Humidity;BMP_temperature;BMP_pressure;BME280_temperature;BME280_humidity;BME280_pressure;Samples;Min_cycle;Max_cycle;Signal;HPM_P1;HPM_P2
2023/03/24 00:00:10;;;;;;;2.13;1.43;;;;;;;;;;21055626;28;20224;-72
2023/03/24 00:10:13;;;;;;;1.77;1.30;;;;;;;;;;21065863;28;20204;-72
2023/03/24 00:20:18;;;;;;;2.67;1.07;;;13.60;99.90;;;;;;21059443;28;20249;-73
2023/03/24 00:30:20;;;;;;;1.73;1.07;;;13.70;99.90;;;;;;21067632;28;20269;-73
2023/03/24 00:40:22;;;;;;;1.77;0.97;;;;;;;;;;21056738;28;20756;-72
2023/03/24 00:50:25;;;;;;;1.13;0.97;;;;;;;;;;21045206;28;20213;-72
2023/03/24 01:00:27;;;;;;;2.30;1.13;;;;;;;;;;21064158;28;20216;-72
2023/03/24 01:10:33;;;;;;;1.40;1.07;;;13.30;99.90;;;;;;21064356;28;20208;-72
2023/03/24 01:20:35;;;;;;;0.90;0.67;;;;;;;;;;21081354;28;20212;-73
2023/03/24 01:30:37;;;;;;;1.20;0.70;;;;;;;;;;21081646;28;20273;-72
2023/03/24 01:40:40;;;;;;;2.23;1.20;;;;;;;;;;21079820;28;20259;-72
2023/03/24 01:50:44;;;;;;;1.33;0.83;;;;;;;;;;21080208;28;20209;-72
2023/03/24 02:00:46;;;;;;;1.00;0.60;;;;;;;;;;21078680;28;20220;-73
2023/03/24 02:11:11;;;;;;;1.33;0.80;;;;;;;;;;21077512;28;20230;-73
2023/03/24 02:21:43;;;;;;;1.13;0.80;;;;;;;;;;21076105;28;20539;-73
2023/03/24 02:31:45;;;;;;;0.97;0.60;;;;;;;;;;21075306;28;20690;-73
2023/03/24 02:41:50;;;;;;;1.33;0.70;;;;;;;;;;21058376;28;20216;-72
2023/03/24 02:52:06;;;;;;;0.73;0.70;;;13.30;99.90;;;;;;20990184;28;20213;-73
2023/03/24 03:02:16;;;;;;;1.00;0.57;;;;;;;;;;20989492;28;20221;-73
2023/03/24 03:12:31;;;;;;;0.93;0.50;;;;;;;;;;20989115;28;20278;-72
2023/03/24 03:22:43;;;;;;;2.10;1.00;;;;;;;;;;20987648;28;20217;-72
2023/03/24 03:32:53;;;;;;;0.67;0.63;;;13.10;99.90;;;;;;20970527;28;20220;-73
2023/03/24 03:42:54;;;;;;;1.30;0.90;;;;;;;;;;21019471;28;20208;-73
2023/03/24 03:52:56;;;;;;;1.13;0.83;;;;;;;;;;21057226;28;20208;-73
2023/03/24 04:02:59;;;;;;;1.10;0.70;;;;;;;;;;21058783;28;20239;-72
2023/03/24 04:13:21;;;;;;;1.53;0.90;;;;;;;;;;21059264;28;20205;-72
2023/03/24 04:23:58;;;;;;;0.77;0.60;;;;;;;;;;21055732;28;20212;-72
2023/03/24 04:34:24;;;;;;;0.70;0.67;;;;;;;;;;21013963;28;20751;-72
2023/03/24 04:44:29;;;;;;;1.37;0.67;;;13.40;99.90;;;;;;20982361;28;20213;-72
2023/03/24 04:55:18;;;;;;;0.40;0.40;;;;;;;;;;20932411;28;20700;-73
2023/03/24 05:05:20;;;;;;;0.53;0.50;;;;;;;;;;20983446;28;20208;-73
2023/03/24 05:15:23;;;;;;;0.83;0.47;;;;;;;;;;20981446;28;20761;-73
2023/03/24 05:25:31;;;;;;;0.57;0.47;;;;;;;;;;20965456;28;20631;-73
2023/03/24 05:35:32;;;;;;;0.43;0.43;;;;;;;;;;20963884;28;20221;-73
2023/03/24 05:45:35;;;;;;;1.17;0.73;;;;;;;;;;20979100;28;20703;-73
2023/03/24 05:55:39;;;;;;;0.63;0.53;;;;;;;;;;20979608;28;20290;-74
2023/03/24 06:05:54;;;;;;;1.57;0.70;;;;;;;;;;20977813;22;20310;-70
2023/03/24 06:15:57;;;;;;;0.70;0.57;;;;;;;;;;20892464;28;20225;-71
2023/03/24 06:26:15;;;;;;;1.83;0.80;;;13.10;99.90;;;;;;20875222;28;20230;-70
2023/03/24 06:36:26;;;;;;;1.07;0.60;;;;;;;;;;20869145;28;20209;-70
2023/03/24 06:46:28;;;;;;;0.77;0.50;;;;;;;;;;20886955;28;20274;-71
2023/03/24 06:56:30;;;;;;;0.60;0.40;;;;;;;;;;20870247;28;20230;-71
2023/03/24 07:06:35;;;;;;;1.10;0.63;;;;;;;;;;20875085;28;20268;-70
2023/03/24 07:16:45;;;;;;;0.63;0.50;;;;;;;;;;20860653;28;20204;-71
2023/03/24 07:27:06;;;;;;;0.77;0.60;;;;;;;;;;20890544;28;20217;-73
2023/03/24 07:37:10;;;;;;;1.27;0.77;;;;;;;;;;20858448;28;20236;-71
2023/03/24 07:47:12;;;;;;;0.60;0.60;;;;;;;;;;20860934;28;20217;-72
2023/03/24 07:57:14;;;;;;;1.50;0.67;;;;;;;;;;20855197;28;20362;-70
2023/03/24 08:07:18;;;;;;;1.20;0.70;;;13.60;99.90;;;;;;20858618;28;20576;-71
2023/03/24 08:17:20;;;;;;;1.53;0.90;;;;;;;;;;20870364;28;20206;-71
2023/03/24 08:27:22;;;;;;;0.67;0.50;;;;;;;;;;20870138;28;20221;-71
2023/03/24 08:37:24;;;;;;;1.03;0.50;;;;;;;;;;20852419;28;20214;-72
2023/03/24 08:47:28;;;;;;;1.00;0.70;;;;;;;;;;20850511;28;20210;-71
2023/03/24 08:57:30;;;;;;;1.13;0.53;;;14.40;99.90;;;;;;20868099;28;20567;-72
2023/03/24 09:07:32;;;;;;;0.90;0.50;;;;;;;;;;20866393;28;20217;-71
2023/03/24 09:17:34;;;;;;;0.90;0.60;;;;;;;;;;20866081;28;20750;-72
2023/03/24 09:27:36;;;;;;;0.50;0.50;;;;;;;;;;20865321;28;20566;-71
2023/03/24 09:37:39;;;;;;;0.97;0.57;;;13.70;99.90;;;;;;20875973;28;20263;-72
2023/03/24 09:48:03;;;;;;;0.60;0.60;;;13.60;99.90;;;;;;20881230;28;20225;-71
2023/03/24 09:58:09;;;;;;;1.90;0.60;;;;;;;;;;20879104;28;20259;-72
2023/03/24 10:08:11;;;;;;;0.57;0.47;;;;;;;;;;20907811;28;20225;-72
2023/03/24 10:18:23;;;;;;;1.43;0.60;;;;;;;;;;20878018;28;20727;-71
2023/03/24 10:28:25;;;;;;;1.00;0.90;;;;;;;;;;20896986;28;20226;-71
2023/03/24 10:38:27;;;;;;;0.50;0.40;;;;;;;;;;20876095;28;20649;-71
2023/03/24 10:48:41;;;;;;;0.30;0.30;;;13.90;99.90;;;;;;20857868;28;20248;-71
2023/03/24 10:58:43;;;;;;;0.40;0.40;;;;;;;;;;20905203;28;20242;-71
2023/03/24 11:08:45;;;;;;;0.20;0.20;;;;;;;;;;20888208;28;20275;-71
2023/03/24 11:18:57;;;;;;;0.37;0.20;;;;;;;;;;20872727;28;20206;-70
2023/03/24 11:29:01;;;;;;;1.07;0.60;;;;;;;;;;20905202;28;20637;-71
2023/03/24 11:39:16;;;;;;;0.40;0.40;;;;;;;;;;20890120;28;20302;-71
2023/03/24 11:49:20;;;;;;;0.30;0.30;;;;;;;;;;20869298;28;20633;-71
2023/03/24 11:59:21;;;;;;;0.40;0.30;;;;;;;;;;20898804;28;20581;-70
2023/03/24 12:09:36;;;;;;;0.73;0.40;;;;;;;;;;20869549;28;20291;-70
2023/03/24 12:19:49;;;;;;;0.53;0.30;;;;;;;;;;20872532;28;20229;-70
2023/03/24 12:29:59;;;;;;;2.67;0.50;;;;;;;;;;20868976;28;20287;-70
2023/03/24 12:40:08;;;;;;;0.93;0.40;;;;;;;;;;20875538;28;20214;-69
2023/03/24 12:50:22;;;;;;;1.73;0.50;;;;;;;;;;20884303;28;20202;-71
2023/03/24 13:00:31;;;;;;;1.90;0.40;;;16.20;99.90;;;;;;20896386;28;20225;-71
2023/03/24 13:10:39;;;;;;;1.23;0.50;;;;;;;;;;20875413;22;20221;-69
2023/03/24 13:20:46;;;;;;;1.43;0.60;;;;;;;;;;20913404;28;20237;-70
2023/03/24 13:30:49;;;;;;;2.53;0.70;;;;;;;;;;20916538;28;20631;-69
2023/03/24 13:40:52;;;;;;;1.33;0.70;;;;;;;;;;20915652;28;20782;-69
2023/03/24 13:50:56;;;;;;;1.20;0.53;;;;;;;;;;20894306;28;20202;-70
2023/03/24 14:01:10;;;;;;;1.20;0.30;;;;;;;;;;20905195;28;20286;-69
2023/03/24 14:11:29;;;;;;;0.43;0.37;;;16.50;99.90;;;;;;20910129;28;20218;-69
2023/03/24 14:21:33;;;;;;;1.20;0.60;;;;;;;;;;20904924;28;20275;-71
2023/03/24 14:31:35;;;;;;;0.67;0.40;;;;;;;;;;20909952;28;20202;-69
2023/03/24 14:41:40;;;;;;;1.23;0.57;;;16.50;99.90;;;;;;20907863;28;20260;-69
2023/03/24 14:51:53;;;;;;;0.57;0.33;;;16.40;99.90;;;;;;20909608;28;20255;-70
2023/03/24 15:02:04;;;;;;;1.37;0.40;;;16.20;99.90;;;;;;20909731;28;20550;-69
2023/03/24 15:12:06;;;;;;;2.20;0.40;;;;;;;;;;20908189;28;20205;-70
2023/03/24 15:22:11;;;;;;;0.33;0.33;;;;;;;;;;20901588;28;20320;-69
2023/03/24 15:32:18;;;;;;;1.20;0.40;;;;;;;;;;20898892;28;20218;-70
2023/03/24 15:42:22;;;;;;;0.57;0.40;;;16.80;99.90;;;;;;20899168;28;20214;-70
2023/03/24 15:52:27;;;;;;;0.63;0.40;;;;;;;;;;20891343;28;20241;-71
2023/03/24 16:02:32;;;;;;;1.90;0.43;;;;;;;;;;20899079;28;20230;-71
2023/03/24 16:12:35;;;;;;;1.17;0.60;;;;;;;;;;20900788;28;20210;-71
2023/03/24 16:22:37;;;;;;;0.63;0.40;;;;;;;;;;20899036;28;20267;-71
2023/03/24 16:32:39;;;;;;;1.87;0.90;;;;;;;;;;20899562;28;20628;-71
2023/03/24 16:42:41;;;;;;;2.67;0.50;;;;;;;;;;20897355;28;20279;-71
2023/03/24 16:52:42;;;;;;;0.57;0.37;;;;;;;;;;20898111;28;20221;-68
2023/03/24 17:02:48;;;;;;;1.03;0.57;;;;;;;;;;20894814;28;20241;-70
2023/03/24 17:12:50;;;;;;;2.80;0.83;;;15.80;99.90;;;;;;20897274;28;20248;-69
2023/03/24 17:22:53;;;;;;;27.43;14.83;;;;;;;;;;20896349;28;20271;-71
2023/03/24 17:32:56;;;;;;;4.37;2.70;;;;;;;;;;20895531;28;20206;-72
2023/03/24 17:42:59;;;;;;;2.33;1.60;;;;;;;;;;20889062;28;20233;-69
2023/03/24 17:53:00;;;;;;;2.87;1.50;;;;;;;;;;20883211;28;20214;-71
2023/03/24 18:03:02;;;;;;;1.77;0.50;;;;;;;;;;20903521;28;20226;-69
2023/03/24 18:13:05;;;;;;;2.53;0.73;;;;;;;;;;20910564;28;20700;-71
2023/03/24 18:23:07;;;;;;;0.63;0.40;;;;;;;;;;20909099;28;20218;-71
2023/03/24 18:33:09;;;;;;;2.30;0.70;;;;;;;;;;20875836;28;20620;-71
2023/03/24 18:43:11;;;;;;;2.77;1.03;;;;;;;;;;20909423;28;20222;-71
2023/03/24 18:53:13;;;;;;;0.77;0.60;;;;;;;;;;20899710;28;20214;-69
2023/03/24 19:03:15;;;;;;;0.97;0.67;;;;;;;;;;20905924;28;20584;-69
2023/03/24 19:13:17;;;;;;;1.63;0.73;;;;;;;;;;20839229;22;20237;-69
2023/03/24 19:23:19;;;;;;;0.80;0.60;;;;;;;;;;20810779;28;20280;-69
2023/03/24 19:33:21;;;;;;;0.57;0.40;;;;;;;;;;20820628;28;20277;-70
2023/03/24 19:43:24;;;;;;;0.70;0.50;;;;;;;;;;20817991;28;20238;-70
2023/03/24 19:53:25;;;;;;;2.10;0.80;;;;;;;;;;20814986;28;20214;-70
2023/03/24 20:03:31;;;;;;;2.70;0.80;;;;;;;;;;20817989;28;20276;-71
2023/03/24 20:13:32;;;;;;;0.67;0.57;;;;;;;;;;20817651;28;20221;-69
2023/03/24 20:23:34;;;;;;;0.80;0.60;;;;;;;;;;20816843;28;20214;-69
2023/03/24 20:33:36;;;;;;;0.87;0.50;;;;;;;;;;20816436;28;20249;-70
2023/03/24 20:43:38;;;;;;;1.27;0.93;;;;;;;;;;20798700;28;20615;-71
2023/03/24 20:53:39;;;;;;;1.80;0.90;;;;;;;;;;20814287;28;20230;-70
2023/03/24 21:03:41;;;;;;;0.20;0.20;;;;;;;;;;20783986;28;20218;-70
2023/03/24 21:13:43;;;;;;;0.27;0.27;;;;;;;;;;20809606;28;20206;-70
2023/03/24 21:23:45;;;;;;;0.70;0.30;;;;;;;;;;20812975;28;20242;-70
2023/03/24 21:33:47;;;;;;;0.43;0.40;;;;;;;;;;20816982;28;20668;-71
2023/03/24 21:43:52;;;;;;;1.23;0.63;;;;;;;;;;20808886;28;20591;-71
2023/03/24 21:53:54;;;;;;;0.70;0.50;;;;;;;;;;20828675;28;20183;-72
2023/03/24 22:15:11;;;;;;;0.27;0.27;;;;;;;;;;21055532;28;20548;-70
2023/03/24 22:25:14;;;;;;;0.43;0.30;;;;;;;;;;21050538;28;20257;-71
2023/03/24 22:35:16;;;;;;;0.43;0.30;;;;;;;;;;21052630;28;20242;-70
2023/03/24 22:45:18;;;;;;;1.70;0.60;;;;;;;;;;21051140;28;20337;-70
2023/03/24 22:55:20;;;;;;;1.33;0.40;;;;;;;;;;21053529;28;20213;-70
2023/03/24 23:05:22;;;;;;;1.03;0.40;;;;;;;;;;21047398;28;20217;-70
2023/03/24 23:15:25;;;;;;;1.17;0.37;;;;;;;;;;21053457;28;20220;-70
2023/03/24 23:25:29;;;;;;;0.40;0.23;;;;;;;;;;20994192;28;20205;-70
2023/03/24 23:35:32;;;;;;;0.40;0.30;;;12.50;99.90;;;;;;20996415;28;20239;-71
2023/03/24 23:45:34;;;;;;;1.30;0.40;;;;;;;;;;20998253;28;20220;-70
2023/03/24 23:55:36;;;;;;;0.20;0.20;;;;;;;;;;20994353;28;20262;-70
